Time;durP1;ratioP1;P1;durP2;ratioP2;P2;SDS_P1;SDS_P2;PMS_P1;PMS_P2;Temp;Humidity;BMP_temperature;BMP_pressure;BME280_temperature;BME280_humidity;BME280_pressure;Samples;Min_cycle;Max_cycle;Signal;HPM_P1;HPM_P2
2022/03/27 00:01:59;;;;;;;2.80;2.60;;;;;;;9.86;54.23;102955.19;4967027;28;96953;-83
2022/03/27 00:04:25;;;;;;;4.87;2.70;;;;;;;9.84;54.33;102969.38;4962816;28;99925;-83
2022/03/27 00:06:50;;;;;;;2.77;2.57;;;;;;;9.86;54.35;102955.19;4958645;28;99206;-84
2022/03/27 00:09:15;;;;;;;2.63;2.47;;;;;;;9.90;54.44;102967.63;4956113;28;96958;-84
2022/03/27 00:11:41;;;;;;;5.00;3.60;;;;;;;9.94;54.29;102962.06;4967139;28;96633;-83
2022/03/27 00:14:07;;;;;;;3.80;3.10;;;;;;;9.94;54.07;102976.56;4967249;28;99252;-84
2022/03/27 00:16:33;;;;;;;3.53;3.00;;;;;;;9.97;54.35;102970.22;4966800;28;99480;-83
2022/03/27 00:18:59;;;;;;;4.20;3.17;;;;;;;9.99;54.40;102958.78;4971194;28;97475;-83
2022/03/27 00:21:25;;;;;;;3.20;2.93;;;;;;;9.95;54.45;102950.63;4971147;28;97066;-83
2022/03/27 00:23:52;;;;;;;6.93;2.70;;;;;;;9.96;54.51;102976.91;4963569;28;97151;-83
2022/03/27 00:26:19;;;;;;;3.33;3.03;;;;;;;9.98;54.43;102973.75;4963210;28;98375;-84
2022/03/27 00:28:44;;;;;;;3.27;2.97;;;;;;;10.02;54.54;102961.44;4963674;28;97242;-83
2022/03/27 00:31:11;;;;;;;3.90;2.47;;;;;;;10.05;54.43;102968.81;4967598;28;98298;-83
2022/03/27 00:33:38;;;;;;;3.13;2.87;;;;;;;10.04;54.31;102955.50;4964845;28;99101;-83
2022/03/27 00:36:05;;;;;;;5.90;3.13;;;;;;;10.07;54.42;102963.66;4967189;28;98320;-83
2022/03/27 00:38:32;;;;;;;5.03;3.50;;;;;;;10.08;54.49;102956.97;4978391;28;96603;-83
2022/03/27 00:40:58;;;;;;;4.33;3.30;;;;;;;10.07;54.44;102955.41;4965933;28;97030;-84
2022/03/27 00:43:24;;;;;;;2.63;2.40;;;;;;;10.09;54.42;102953.00;4959438;28;98967;-83
2022/03/27 00:45:50;;;;;;;3.43;3.13;;;;;;;10.11;54.55;102958.13;4967719;28;97056;-84
2022/03/27 00:48:19;;;;;;;2.70;2.50;;;;;;;10.14;54.58;102957.22;4965480;28;96885;-84
2022/03/27 00:50:46;;;;;;;3.30;3.00;;;;;;;10.14;54.73;102963.50;4966380;28;97055;-84
2022/03/27 00:53:12;;;;;;;3.00;2.57;;;;;;;10.18;54.62;102961.44;4963812;28;97262;-84
2022/03/27 00:55:38;;;;;;;4.37;3.20;;;;;;;10.19;54.72;102957.50;4961010;28;97381;-84
2022/03/27 00:58:04;;;;;;;5.37;3.13;;;;;;;10.21;54.60;102951.56;4967449;28;98656;-84
2022/03/27 01:00:38;;;;;;;3.97;3.30;;;;;;;10.24;55.38;102951.44;4966166;28;97018;-84
2022/03/27 01:03:12;;;;;;;5.20;3.17;;;;;;;10.25;54.91;102953.00;4971319;28;97147;-83
2022/03/27 01:05:38;;;;;;;7.10;3.90;;;;;;;10.27;54.65;102969.84;4958413;28;97762;-84
2022/03/27 01:08:09;;;;;;;5.60;3.33;;;;;;;10.29;54.95;102955.66;4961433;28;97287;-83
2022/03/27 01:10:35;;;;;;;4.37;3.03;;;;;;;10.29;54.69;102950.16;4963946;28;97132;-83
2022/03/27 01:13:04;;;;;;;5.37;3.20;;;;;;;10.27;54.81;102947.06;4964156;28;98001;-83
2022/03/27 01:15:51;;;;;;;4.30;3.13;;;;;;;10.23;55.73;102951.88;4965127;28;97025;-83
2022/03/27 01:18:17;;;;;;;6.30;3.50;;;;;;;10.20;54.85;102952.78;4960861;28;97131;-84
2022/03/27 01:20:43;;;;;;;5.73;3.63;;;;;;;10.23;54.76;102949.91;4962791;28;96729;-84
2022/03/27 01:23:10;;;;;;;5.37;3.23;;;;;;;10.22;54.76;102950.34;4964566;28;98860;-83
2022/03/27 01:25:37;;;;;;;5.43;3.73;;;;;;;10.22;54.76;102951.09;4967356;28;98198;-83
2022/03/27 01:28:04;;;;;;;8.93;3.80;;;;;;;10.23;54.85;102963.66;4965278;28;97163;-83
2022/03/27 01:30:30;;;;;;;4.03;3.67;;;;;;;10.25;54.89;102947.50;4963714;28;96677;-84
2022/03/27 01:32:55;;;;;;;9.83;4.73;;;;;;;10.27;54.71;102953.34;4964559;28;98868;-83
2022/03/27 01:35:21;;;;;;;11.27;4.73;;;;;;;10.29;54.91;102961.94;4966956;28;97113;-83
2022/03/27 01:37:47;;;;;;;6.53;4.20;;;;;;;10.32;54.76;102974.84;4964474;28;97099;-84
2022/03/27 01:40:13;;;;;;;5.63;3.47;;;;;;;10.32;54.65;102965.81;4965447;28;97204;-84
2022/03/27 01:42:39;;;;;;;8.47;3.63;;;;;;;10.30;54.96;102960.75;4963923;28;96807;-84
2022/03/27 01:45:05;;;;;;;4.40;4.00;;;;;;;10.35;54.98;102967.69;4965427;28;97194;-84
2022/03/27 01:47:31;;;;;;;4.67;4.10;;;;;;;10.33;54.97;102953.59;4959970;28;98022;-84
2022/03/27 01:49:56;;;;;;;6.07;4.30;;;;;;;10.30;54.99;102952.47;4971133;28;97221;-84
2022/03/27 01:52:22;;;;;;;6.93;4.23;;;;;;;10.33;55.02;102956.34;4961581;28;97880;-84
2022/03/27 01:54:47;;;;;;;8.13;3.87;;;;;;;10.34;55.02;102968.88;4976829;28;99508;-83
2022/03/27 01:57:13;;;;;;;6.40;4.00;;;;;;;10.35;55.08;102956.69;4963669;28;96999;-84
2022/03/27 01:59:38;;;;;;;8.00;5.17;;;;;;;10.32;55.01;102954.78;4964632;28;97171;-84
2022/03/27 02:02:04;;;;;;;7.97;4.10;;;;;;;10.32;55.05;102958.31;4965468;28;100655;-83
2022/03/27 02:04:30;;;;;;;6.23;4.43;;;;;;;10.34;54.93;102961.41;4967352;28;101830;-84
2022/03/27 02:06:55;;;;;;;7.70;4.97;;;;;;;10.32;55.00;102957.53;4963725;28;97109;-83
2022/03/27 02:09:20;;;;;;;7.00;4.73;;;;;;;10.33;55.13;102953.59;4961927;28;97080;-84
2022/03/27 02:11:46;;;;;;;4.30;3.90;;;;;;;10.33;55.24;102961.84;4963657;28;99292;-84
2022/03/27 02:14:11;;;;;;;5.50;4.03;;;;;;;10.31;55.24;102958.75;4965452;28;97232;-84
2022/03/27 02:16:37;;;;;;;8.30;5.00;;;;;;;10.29;55.11;102972.94;4980158;28;96879;-84
2022/03/27 02:19:09;;;;;;;7.67;4.40;;;;;;;10.31;55.23;102964.28;4958875;28;96898;-83
2022/03/27 02:21:35;;;;;;;8.43;4.90;;;;;;;10.33;55.19;102959.09;4963133;28;98809;-82
2022/03/27 02:24:04;;;;;;;9.93;5.70;;;;;;;10.30;55.23;102963.50;4960957;28;98550;-83
2022/03/27 02:26:30;;;;;;;8.20;5.20;;;;;;;10.30;55.13;102969.00;4965225;28;96843;-83
2022/03/27 02:28:56;;;;;;;7.77;4.60;;;;;;;10.32;55.21;102960.28;4962845;28;97074;-83
2022/03/27 02:31:21;;;;;;;5.90;4.40;;;;;;;10.31;55.26;102980.78;4959287;28;99737;-83
2022/03/27 02:33:48;;;;;;;6.63;3.73;;;;;;;10.32;55.21;102966.56;4957263;28;98100;-83
2022/03/27 02:36:14;;;;;;;6.83;4.57;;;;;;;10.28;55.28;102949.41;4963066;28;97375;-82
2022/03/27 02:38:40;;;;;;;10.20;5.27;;;;;;;10.32;55.20;102965.81;4964333;28;97069;-84
2022/03/27 02:41:06;;;;;;;8.67;5.57;;;;;;;10.31;55.21;102973.28;4960735;28;97880;-83
2022/03/27 02:43:32;;;;;;;9.93;5.47;;;;;;;10.32;55.39;102969.34;4965062;28;97370;-84
2022/03/27 02:45:58;;;;;;;6.43;5.00;;;;;;;10.32;55.20;102955.56;4966117;28;96868;-83
2022/03/27 02:48:24;;;;;;;7.87;4.70;;;;;;;10.29;55.27;102970.19;4970918;28;96826;-84
2022/03/27 02:50:49;;;;;;;8.97;5.10;;;;;;;10.31;55.34;102953.25;4960682;28;96897;-83
2022/03/27 02:53:15;;;;;;;6.93;4.67;;;;;;;10.29;55.28;102952.91;4964450;28;97213;-83
2022/03/27 02:55:40;;;;;;;14.93;5.10;;;;;;;10.29;55.36;102958.41;4958531;28;96867;-83
2022/03/27 02:58:06;;;;;;;6.67;4.80;;;;;;;10.29;55.28;102948.19;4964008;28;98962;-84
2022/03/27 03:00:32;;;;;;;10.13;5.33;;;;;;;10.27;55.46;102942.34;4963287;28;99990;-83
2022/03/27 03:02:58;;;;;;;7.87;5.13;;;;;;;10.20;55.48;102947.28;4968326;28;97064;-83
2022/03/27 03:05:24;;;;;;;8.13;5.30;;;;;;;10.16;55.43;102930.84;4967095;28;96948;-84
2022/03/27 03:07:50;;;;;;;7.30;5.17;;;;;;;10.26;55.52;102948.28;4964602;28;96973;-84
2022/03/27 03:10:16;;;;;;;7.00;5.07;;;;;;;10.22;55.43;102948.34;4956514;28;98167;-83
2022/03/27 03:12:42;;;;;;;10.83;5.50;;;;;;;10.24;55.51;102942.44;4963748;28;97233;-84
2022/03/27 03:15:09;;;;;;;7.10;5.20;;;;;;;10.23;55.55;102940.88;4970725;28;97305;-83
2022/03/27 03:17:35;;;;;;;9.53;4.97;;;;;;;10.26;55.47;102964.78;4962277;28;98699;-84
2022/03/27 03:20:01;;;;;;;8.40;5.73;;;;;;;10.26;55.54;102943.56;4966576;28;97491;-84
2022/03/27 03:22:27;;;;;;;7.60;5.10;;;;;;;10.26;55.44;102937.28;4969295;28;97008;-83
2022/03/27 03:24:53;;;;;;;8.40;4.80;;;;;;;10.23;55.47;102940.88;4964111;28;96780;-85
2022/03/27 03:27:18;;;;;;;12.87;5.90;;;;;;;10.23;55.59;102949.13;4974107;28;97018;-85
2022/03/27 03:29:44;;;;;;;9.90;6.23;;;;;;;10.22;55.66;102944.84;4967821;28;98294;-84
2022/03/27 03:32:09;;;;;;;7.63;5.30;;;;;;;10.20;55.63;102959.03;4963240;28;97872;-84
2022/03/27 03:34:35;;;;;;;9.07;5.20;;;;;;;10.19;55.66;102946.50;4963043;28;96711;-84
2022/03/27 03:37:01;;;;;;;9.67;5.90;;;;;;;10.18;55.65;102952.41;4968714;28;97231;-84
2022/03/27 03:39:26;;;;;;;8.67;6.40;;;;;;;10.17;55.44;102951.66;4963373;28;97036;-84
2022/03/27 03:41:51;;;;;;;6.47;5.10;;;;;;;10.16;55.58;102941.84;4964906;28;97559;-81
2022/03/27 03:44:17;;;;;;;15.67;6.03;;;;;;;10.14;55.57;102958.00;4962692;28;98298;-82
2022/03/27 03:46:43;;;;;;;6.50;5.53;;;;;;;10.09;55.79;102950.25;4965201;28;97227;-82
2022/03/27 03:49:09;;;;;;;10.07;5.80;;;;;;;10.10;55.67;102954.56;4964793;28;99084;-83
2022/03/27 03:51:34;;;;;;;9.80;5.57;;;;;;;10.12;55.84;102952.19;4969642;28;98138;-81
2022/03/27 03:54:01;;;;;;;6.97;5.23;;;;;;;10.11;55.84;102947.13;4967937;28;97090;-81
2022/03/27 03:56:27;;;;;;;14.07;6.13;;;;;;;10.11;55.80;102939.63;4966371;28;97542;-82
2022/03/27 03:58:52;;;;;;;6.70;5.67;;;;;;;10.12;55.75;102943.91;4964733;28;96864;-81
2022/03/27 04:01:17;;;;;;;9.80;5.50;;;;;;;10.14;55.65;102947.00;4967872;28;99305;-82
2022/03/27 04:03:43;;;;;;;10.00;6.33;;;;;;;10.14;55.66;102962.72;4957595;28;96911;-83
2022/03/27 04:06:08;;;;;;;12.00;6.57;;;;;;;10.08;55.76;102953.44;4966894;28;96795;-83
2022/03/27 04:08:34;;;;;;;8.23;5.60;;;;;;;10.07;55.73;102952.66;4966177;28;96888;-84
2022/03/27 04:10:59;;;;;;;6.13;5.30;;;;;;;10.05;55.89;102960.56;4971606;28;97078;-83
2022/03/27 04:13:25;;;;;;;11.20;6.20;;;;;;;10.05;55.74;102952.31;4967925;28;96971;-83
2022/03/27 04:15:50;;;;;;;8.73;6.20;;;;;;;10.01;55.80;102961.88;4968172;28;96894;-84
2022/03/27 04:18:15;;;;;;;7.17;5.57;;;;;;;9.98;55.97;102960.75;4965517;28;98624;-83
2022/03/27 04:20:41;;;;;;;11.03;6.27;;;;;;;9.95;55.94;102963.59;4959110;28;97029;-83
2022/03/27 04:23:07;;;;;;;9.77;6.37;;;;;;;9.95;55.90;102958.09;4967329;28;97156;-84
2022/03/27 04:25:32;;;;;;;7.63;5.40;;;;;;;9.91;55.69;102955.44;4965935;28;97409;-83
2022/03/27 04:28:03;;;;;;;7.40;5.30;;;;;;;9.88;56.21;102958.28;4964067;28;96969;-83
2022/03/27 04:30:29;;;;;;;12.50;6.33;;;;;;;9.95;55.99;102953.38;4960027;28;96904;-83
2022/03/27 04:32:54;;;;;;;9.10;6.33;;;;;;;9.97;56.06;102952.94;4964131;28;96771;-83
2022/03/27 04:35:19;;;;;;;6.20;5.20;;;;;;;9.98;55.96;102955.25;4960454;28;96931;-84
2022/03/27 04:37:46;;;;;;;7.60;6.27;;;;;;;9.97;56.13;102945.47;4968312;28;99592;-84
2022/03/27 04:40:13;;;;;;;12.03;6.90;;;;;;;9.98;56.18;102951.75;4973052;28;97389;-83
2022/03/27 04:42:40;;;;;;;10.33;5.80;;;;;;;10.00;55.98;102949.34;4963745;28;97095;-84
2022/03/27 04:45:06;;;;;;;8.73;6.20;;;;;;;10.01;56.11;102954.41;4961284;28;97011;-84
2022/03/27 04:47:31;;;;;;;13.30;5.87;;;;;;;10.00;56.23;102941.88;4964691;28;98099;-83
2022/03/27 04:49:56;;;;;;;10.13;6.40;;;;;;;9.93;56.18;102938.50;4967923;28;97095;-84
2022/03/27 04:52:22;;;;;;;14.73;7.20;;;;;;;9.89;56.16;102944.13;4962795;28;96919;-83
2022/03/27 04:54:47;;;;;;;9.97;6.63;;;;;;;9.93;56.12;102966.00;4965942;28;97326;-83
2022/03/27 04:57:13;;;;;;;13.10;6.37;;;;;;;9.91;56.25;102927.94;4967324;28;97675;-83
2022/03/27 04:59:38;;;;;;;10.50;7.20;;;;;;;9.92;56.12;102932.22;4961079;28;98407;-83
2022/03/27 05:02:05;;;;;;;11.20;7.03;;;;;;;9.88;56.06;102920.56;4966882;28;96845;-83
2022/03/27 05:04:30;;;;;;;10.70;5.90;;;;;;;9.89;55.97;102932.34;4967669;28;96777;-83
2022/03/27 05:06:56;;;;;;;12.10;7.23;;;;;;;9.82;56.14;102933.28;4966010;28;97630;-83
2022/03/27 05:09:21;;;;;;;12.80;7.20;;;;;;;9.78;56.19;102908.63;4965961;28;100685;-83
2022/03/27 05:11:47;;;;;;;12.23;6.97;;;;;;;9.79;56.39;102906.66;4967558;28;96865;-83
2022/03/27 05:14:12;;;;;;;15.60;7.13;;;;;;;9.80;56.29;102911.72;4966652;28;97009;-83
2022/03/27 05:16:38;;;;;;;10.63;7.30;;;;;;;9.77;56.30;102928.31;4967236;28;97547;-83
2022/03/27 05:19:04;;;;;;;12.33;7.50;;;;;;;9.75;56.36;102923.25;4966114;28;97745;-83
2022/03/27 05:21:30;;;;;;;9.30;6.30;;;;;;;9.75;56.40;102923.25;4962329;28;96502;-84
2022/03/27 05:23:56;;;;;;;10.80;7.27;;;;;;;9.76;56.42;102921.28;4967565;28;96956;-83
2022/03/27 05:26:21;;;;;;;9.50;7.07;;;;;;;9.75;56.42;102920.50;4965325;28;99612;-83
2022/03/27 05:28:47;;;;;;;11.13;6.87;;;;;;;9.74;56.50;102951.94;4960370;28;97719;-83
2022/03/27 05:31:12;;;;;;;8.73;6.10;;;;;;;9.74;56.37;102931.94;4964917;28;97033;-84
2022/03/27 05:33:38;;;;;;;9.27;7.20;;;;;;;9.74;56.40;102921.69;4963009;28;96975;-83
2022/03/27 05:36:08;;;;;;;12.33;6.87;;;;;;;9.67;56.65;102934.84;4962691;28;103255;-83
2022/03/27 05:38:34;;;;;;;10.63;6.53;;;;;;;9.62;56.57;102940.84;4964229;28;96843;-83
2022/03/27 05:41:00;;;;;;;11.90;6.27;;;;;;;9.60;56.59;102944.03;4964009;28;96736;-83
2022/03/27 05:43:26;;;;;;;8.50;6.70;;;;;;;9.59;56.58;102945.22;4966975;28;97169;-83
2022/03/27 05:45:53;;;;;;;16.50;7.53;;;;;;;9.65;56.50;102946.25;4963931;28;100019;-84
2022/03/27 05:48:19;;;;;;;10.07;7.00;;;;;;;9.69;56.74;102949.72;4965278;28;97919;-84
2022/03/27 05:50:45;;;;;;;7.67;6.23;;;;;;;9.72;56.51;102945.31;4963206;28;97949;-83
2022/03/27 05:53:10;;;;;;;12.93;6.67;;;;;;;9.74;56.62;102957.41;4966532;28;97288;-84
2022/03/27 05:55:36;;;;;;;11.60;6.93;;;;;;;9.76;56.51;102948.75;4965853;28;98823;-83
2022/03/27 05:58:01;;;;;;;9.37;6.77;;;;;;;9.78;56.64;102958.09;4967112;28;98384;-84
2022/03/27 06:00:27;;;;;;;9.50;6.47;;;;;;;9.81;56.65;102945.47;4968387;28;97250;-84
2022/03/27 06:02:53;;;;;;;10.53;6.77;;;;;;;9.87;56.63;102943.00;4961686;28;97272;-84
2022/03/27 06:05:22;;;;;;;10.43;6.10;;;;;;;9.89;56.50;102935.88;4966055;28;98659;-83
2022/03/27 06:07:58;;;;;;;10.00;7.27;;;;;;;9.93;56.57;102941.25;4963871;28;97371;-84
2022/03/27 06:10:33;;;;;;;11.10;5.90;;;;;;;9.91;56.74;102958.19;4965261;28;97025;-84
2022/03/27 06:13:00;;;;;;;13.20;7.10;;;;;;;9.93;56.47;102953.03;4962124;28;97106;-84
2022/03/27 06:15:27;;;;;;;11.40;7.20;;;;;;;9.96;56.61;102965.91;4962411;28;97113;-84
2022/03/27 06:17:54;;;;;;;13.67;7.07;;;;;;;9.98;56.59;102958.00;4963926;28;98120;-84
2022/03/27 06:20:25;;;;;;;8.83;6.60;;;;;;;10.05;56.81;102951.53;4965895;28;97235;-83
2022/03/27 06:22:52;;;;;;;9.27;6.83;;;;;;;10.02;56.56;102961.44;4959326;28;96959;-83
2022/03/27 06:25:19;;;;;;;10.53;7.00;;;;;;;10.01;56.39;102959.91;4961679;28;101014;-84
2022/03/27 06:27:45;;;;;;;7.73;5.83;;;;;;;9.99;56.40;102967.81;4966662;28;97435;-83
2022/03/27 06:30:16;;;;;;;11.27;7.53;;;;;;;9.92;56.55;102991.94;4957403;28;97470;-84
2022/03/27 06:32:43;;;;;;;12.33;7.00;;;;;;;9.88;56.71;102991.25;4961518;28;96859;-81
2022/03/27 06:35:11;;;;;;;8.97;6.90;;;;;;;9.86;56.55;102999.19;4964432;28;96995;-82
2022/03/27 06:37:37;;;;;;;11.57;6.97;;;;;;;9.68;56.64;102983.09;4965399;28;99704;-83
2022/03/27 06:40:04;;;;;;;13.10;8.00;;;;;;;9.72;56.95;102994.78;4968378;28;96626;-83
2022/03/27 06:42:30;;;;;;;11.73;7.97;;;;;;;9.80;57.03;102996.19;4966409;28;97274;-83
2022/03/27 06:44:57;;;;;;;14.73;8.00;;;;;;;9.87;57.00;102985.00;4967663;28;98453;-83
2022/03/27 06:47:23;;;;;;;10.87;7.63;;;;;;;9.97;57.08;102988.69;4966539;28;97164;-82
2022/03/27 06:49:50;;;;;;;9.80;7.03;;;;;;;10.01;57.05;102995.66;4966248;28;97370;-82
2022/03/27 06:52:17;;;;;;;10.00;7.20;;;;;;;9.95;56.65;102986.38;4965494;28;97287;-82
2022/03/27 06:54:43;;;;;;;10.63;8.13;;;;;;;9.84;57.05;102996.88;4966036;28;102156;-83
2022/03/27 06:57:09;;;;;;;12.10;7.50;;;;;;;9.91;57.04;103015.94;4967475;28;99404;-83
2022/03/27 07:05:04;;;;;;;16.33;7.70;;;;;;;10.13;57.07;103008.75;4960862;28;101447;-83
2022/03/27 07:07:30;;;;;;;14.83;7.80;;;;;;;10.19;56.89;102998.75;4967666;28;97458;-84
2022/03/27 07:09:56;;;;;;;10.53;7.87;;;;;;;10.19;56.62;103000.72;4964919;28;97851;-83
2022/03/27 07:12:22;;;;;;;12.10;7.53;;;;;;;10.15;56.63;103000.84;4964086;28;96824;-82
2022/03/27 07:14:47;;;;;;;9.93;7.50;;;;;;;10.17;56.74;103014.94;4982867;28;99142;-83
2022/03/27 07:17:17;;;;;;;8.53;6.60;;;;;;;10.25;57.16;102999.00;4964903;28;97074;-83
2022/03/27 07:19:43;;;;;;;8.77;7.03;;;;;;;10.22;56.81;103011.63;4967268;28;96728;-83
2022/03/27 07:22:09;;;;;;;10.60;7.07;;;;;;;10.23;56.77;103002.19;4979165;28;97206;-83
2022/03/27 07:24:34;;;;;;;9.57;7.57;;;;;;;10.35;56.63;102995.22;4966974;28;99695;-82
2022/03/27 07:27:00;;;;;;;10.03;7.03;;;;;;;10.41;56.59;102997.00;4963256;28;96912;-83
2022/03/27 07:29:25;;;;;;;14.00;7.80;;;;;;;10.36;56.44;103008.53;4963137;28;97204;-83
2022/03/27 07:31:51;;;;;;;13.17;8.30;;;;;;;10.24;56.73;102989.97;4965254;28;96985;-82
2022/03/27 07:34:16;;;;;;;10.77;6.80;;;;;;;10.30;56.88;102990.22;4961764;28;101903;-83
2022/03/27 07:36:42;;;;;;;12.80;7.43;;;;;;;10.42;56.90;102982.03;4967089;28;97242;-82
2022/03/27 07:39:11;;;;;;;11.30;7.40;;;;;;;10.55;56.84;102984.81;4964357;28;97107;-82
2022/03/27 07:41:36;;;;;;;9.83;6.83;;;;;;;10.64;56.86;103003.47;4960547;28;96922;-83
2022/03/27 07:44:02;;;;;;;9.53;6.97;;;;;;;10.66;56.73;102999.06;4963293;28;98799;-84
2022/03/27 07:46:27;;;;;;;12.10;7.13;;;;;;;10.82;56.70;103000.97;4957371;28;97025;-83
2022/03/27 07:48:53;;;;;;;10.50;7.20;;;;;;;10.84;56.30;102995.81;4969951;28;96960;-83
2022/03/27 07:51:18;;;;;;;10.63;7.40;;;;;;;10.94;56.67;102997.50;4969214;28;96927;-83
2022/03/27 07:53:43;;;;;;;10.70;7.17;;;;;;;11.02;56.60;103004.34;4964518;28;97604;-83
2022/03/27 07:56:09;;;;;;;10.87;7.70;;;;;;;11.06;56.37;102996.75;4962893;28;96982;-84
2022/03/27 07:58:34;;;;;;;9.20;6.90;;;;;;;11.13;56.22;102999.28;4968830;28;97168;-84
2022/03/27 08:01:00;;;;;;;8.07;6.77;;;;;;;11.11;56.27;102999.75;4973451;28;97109;-83
2022/03/27 08:03:26;;;;;;;10.23;7.90;;;;;;;11.12;56.10;103006.00;4965142;28;98157;-84
2022/03/27 08:05:51;;;;;;;10.27;7.40;;;;;;;11.17;56.35;103002.72;4967787;28;97272;-83
2022/03/27 08:08:17;;;;;;;11.40;7.77;;;;;;;11.20;56.04;102993.56;4961101;28;97100;-83
2022/03/27 08:10:43;;;;;;;16.17;8.10;;;;;;;11.34;56.26;102998.66;4962207;28;98938;-83
2022/03/27 08:13:08;;;;;;;11.60;8.20;;;;;;;11.35;56.17;102989.16;4964437;28;98707;-83
2022/03/27 08:15:34;;;;;;;11.27;6.90;;;;;;;11.42;56.04;103002.75;4967354;28;98264;-84
2022/03/27 08:17:59;;;;;;;9.67;7.43;;;;;;;11.51;55.94;103004.84;4966388;28;97256;-83
2022/03/27 08:20:26;;;;;;;14.60;8.17;;;;;;;11.48;55.74;103000.97;4962468;28;97230;-83
2022/03/27 08:22:53;;;;;;;12.53;7.90;;;;;;;11.44;56.02;103008.59;4965026;28;99891;-84
2022/03/27 08:28:03;;;;;;;13.40;7.23;;;;;;;11.61;55.97;103021.03;4971887;28;97525;-83
2022/03/27 08:30:28;;;;;;;13.37;7.50;;;;;;;11.69;56.00;103038.94;4965004;28;97138;-84
2022/03/27 08:32:53;;;;;;;10.60;7.50;;;;;;;11.80;55.85;103025.56;4962355;28;96898;-85
2022/03/27 08:35:19;;;;;;;14.20;7.90;;;;;;;11.89;55.82;103027.66;4968952;28;99641;-84
2022/03/27 08:37:45;;;;;;;14.40;8.17;;;;;;;11.98;55.71;103028.53;4961149;28;96959;-83
2022/03/27 08:40:12;;;;;;;11.43;7.60;;;;;;;12.00;55.50;103037.16;4964819;28;96955;-84
2022/03/27 08:42:38;;;;;;;10.70;7.10;;;;;;;12.01;55.60;103022.13;4963698;28;98647;-83
2022/03/27 08:45:04;;;;;;;12.87;8.33;;;;;;;12.06;55.43;103018.03;4966372;28;99431;-84
2022/03/27 08:47:31;;;;;;;11.07;7.33;;;;;;;12.15;55.39;103020.09;4969004;28;96598;-83
2022/03/27 08:50:11;;;;;;;11.30;7.60;;;;;;;12.19;55.67;103015.25;4965710;28;96649;-83
2022/03/27 08:52:49;;;;;;;11.23;8.10;;;;;;;12.23;55.32;103021.44;4960637;28;100967;-83
2022/03/27 08:55:20;;;;;;;10.90;7.00;;;;;;;12.29;55.36;103020.41;4958475;28;100007;-84
2022/03/27 08:57:51;;;;;;;15.70;7.17;;;;;;;12.39;55.41;103019.25;4960656;28;97422;-84
2022/03/27 09:00:20;;;;;;;13.60;7.70;;;;;;;12.44;55.29;103026.22;4958403;28;97034;-84
2022/03/27 09:02:46;;;;;;;13.70;8.10;;;;;;;12.56;55.27;103017.09;4966603;28;99271;-83
2022/03/27 09:05:12;;;;;;;11.97;7.20;;;;;;;12.66;55.14;103018.72;4954275;28;96757;-84
2022/03/27 09:07:37;;;;;;;14.50;7.60;;;;;;;12.73;54.99;103004.66;4963696;28;97084;-83
2022/03/27 09:10:08;;;;;;;11.13;7.47;;;;;;;12.82;54.64;103019.28;4963022;28;97014;-82
2022/03/27 09:12:35;;;;;;;9.77;6.80;;;;;;;12.77;54.87;103014.38;4959698;28;97043;-84
2022/03/27 09:15:02;;;;;;;12.83;7.10;;;;;;;12.73;54.99;103029.53;4961571;28;98144;-85
2022/03/27 09:17:27;;;;;;;11.83;7.10;;;;;;;12.87;55.03;103001.34;4962757;28;96898;-84
2022/03/27 09:19:53;;;;;;;14.47;7.53;;;;;;;12.89;54.86;103009.97;4967627;28;97088;-84
2022/03/27 09:22:28;;;;;;;10.40;7.70;;;;;;;12.97;55.06;103005.75;4966945;28;98797;-84
2022/03/27 09:25:01;;;;;;;10.83;7.47;;;;;;;13.09;54.93;103007.66;4958305;28;97736;-83
2022/03/27 09:27:37;;;;;;;8.83;6.60;;;;;;;13.16;54.77;103010.16;4965730;28;96906;-84
2022/03/27 09:30:09;;;;;;;8.43;6.63;;;;;;;13.20;54.67;102993.44;4962512;28;97320;-84
2022/03/27 09:32:40;;;;;;;9.13;6.63;;;;;;;13.27;54.67;103005.00;4963981;28;97648;-83
2022/03/27 09:35:10;;;;;;;9.37;5.73;;;;;;;13.34;54.51;103001.97;4965627;28;96712;-83
2022/03/27 09:37:41;;;;;;;13.47;6.20;;;;;;;13.34;54.33;103003.97;4960872;28;97199;-83
2022/03/27 09:40:08;;;;;;;8.30;6.30;;;;;;;13.31;54.42;103007.63;4963434;28;96976;-84
2022/03/27 09:42:36;;;;;;;8.70;6.60;;;;;;;13.32;54.44;103018.22;4965234;28;97180;-84
2022/03/27 09:45:19;;;;;;;9.20;6.87;;;;;;;13.35;54.33;103011.78;4959271;28;97707;-83
2022/03/27 09:47:48;;;;;;;7.77;5.97;;;;;;;13.38;54.31;103012.88;4963669;28;96987;-84
2022/03/27 09:50:33;;;;;;;9.37;6.53;;;;;;;13.42;54.53;103000.47;4954376;28;96884;-85
2022/03/27 09:53:19;;;;;;;8.80;6.20;;;;;;;13.44;54.43;103009.06;4973443;28;100992;-83
2022/03/27 09:56:05;;;;;;;12.00;7.27;;;;;;;13.41;54.41;102995.41;4976204;28;102124;-82
2022/03/27 09:58:41;;;;;;;10.17;6.47;;;;;;;13.39;54.20;102995.06;4957217;28;97678;-84
2022/03/27 10:01:24;;;;;;;9.70;7.30;;;;;;;13.44;54.45;103014.59;4960285;28;96851;-83
2022/03/27 10:03:59;;;;;;;13.80;7.13;;;;;;;13.56;54.19;102998.34;4962646;28;100789;-82
2022/03/27 10:06:45;;;;;;;10.13;6.73;;;;;;;13.67;54.17;102993.94;4954047;28;97039;-84
2022/03/27 10:09:12;;;;;;;10.17;7.93;;;;;;;13.76;54.05;102995.97;4956274;28;97412;-83
2022/03/27 10:11:39;;;;;;;12.20;6.43;;;;;;;13.85;54.01;102993.97;4964433;28;97036;-82
2022/03/27 10:14:06;;;;;;;9.70;6.60;;;;;;;13.88;53.81;102992.28;4963195;28;97520;-84
2022/03/27 10:16:47;;;;;;;11.60;7.47;;;;;;;13.92;53.93;102987.38;4968278;28;98648;-85
2022/03/27 10:19:32;;;;;;;10.70;6.60;;;;;;;14.00;53.81;103008.00;4968380;28;97267;-84
2022/03/27 10:22:00;;;;;;;10.07;7.37;;;;;;;14.13;53.66;102992.78;4974475;28;98573;-85
2022/03/27 10:24:30;;;;;;;10.57;6.90;;;;;;;14.22;53.44;102992.78;4962561;28;96685;-85
2022/03/27 10:26:59;;;;;;;8.43;6.50;;;;;;;14.32;53.39;102977.00;4965945;28;100782;-84
2022/03/27 10:29:25;;;;;;;9.03;6.90;;;;;;;14.45;53.21;102985.13;4961563;28;96775;-84
2022/03/27 10:31:51;;;;;;;9.70;7.07;;;;;;;14.60;53.25;102961.09;4961668;28;96978;-84
2022/03/27 10:34:20;;;;;;;8.83;7.20;;;;;;;14.72;53.12;102974.03;4961058;28;96928;-84
2022/03/27 10:36:54;;;;;;;9.37;6.87;;;;;;;14.85;52.74;102974.63;4964763;28;98783;-84
2022/03/27 10:39:32;;;;;;;9.83;6.80;;;;;;;14.87;52.33;102956.28;4960101;28;96744;-83
2022/03/27 10:42:09;;;;;;;8.63;7.10;;;;;;;14.92;52.64;102958.41;4955468;28;96995;-83
2022/03/27 10:44:47;;;;;;;10.43;7.10;;;;;;;14.58;51.87;102958.03;4962837;28;97905;-83
2022/03/27 10:47:19;;;;;;;10.13;7.20;;;;;;;14.32;52.85;102963.16;4961689;28;100716;-84
2022/03/27 10:50:08;;;;;;;8.67;6.60;;;;;;;14.46;53.01;102961.75;4969542;28;97094;-83
2022/03/27 10:52:46;;;;;;;9.50;6.70;;;;;;;14.54;52.85;102960.97;4964604;28;96823;-83
2022/03/27 10:55:16;;;;;;;8.87;7.00;;;;;;;14.72;52.92;102943.56;4974097;28;99751;-85
2022/03/27 10:57:49;;;;;;;9.30;6.67;;;;;;;14.86;52.79;102945.66;4964330;28;96829;-83
2022/03/27 11:00:35;;;;;;;10.13;7.23;;;;;;;15.10;52.72;102943.72;4975453;28;96755;-86
2022/03/27 11:03:01;;;;;;;9.20;6.90;;;;;;;15.25;52.45;102947.34;4965924;28;97133;-85
2022/03/27 11:05:34;;;;;;;8.43;6.50;;;;;;;15.65;52.19;102942.25;4964081;28;100055;-84
2022/03/27 11:08:18;;;;;;;8.70;6.10;;;;;;;15.94;51.28;102933.28;4961606;28;100243;-84
2022/03/27 11:10:55;;;;;;;7.47;6.63;;;;;;;16.21;51.62;102948.94;4962201;28;97921;-85
2022/03/27 11:13:26;;;;;;;7.90;6.80;;;;;;;16.35;50.74;102943.41;4962519;28;96993;-83
2022/03/27 11:16:01;;;;;;;10.37;7.07;;;;;;;16.31;50.28;102936.50;4964903;28;97655;-86
2022/03/27 11:18:39;;;;;;;10.97;7.20;;;;;;;16.51;50.54;102947.00;4964820;28;98466;-85
2022/03/27 11:21:06;;;;;;;10.83;6.60;;;;;;;16.62;50.50;102933.31;4959408;28;97209;-84
2022/03/27 11:23:36;;;;;;;8.10;6.70;;;;;;;16.87;50.44;102922.34;4958023;28;97171;-84
2022/03/27 11:26:29;;;;;;;13.13;7.40;;;;;;;17.29;49.55;102924.78;4968635;28;97794;-83
2022/03/27 11:28:59;;;;;;;9.17;6.27;;;;;;;17.56;49.59;102926.44;4966941;28;104695;-85
2022/03/27 11:31:30;;;;;;;11.33;7.10;;;;;;;17.79;49.08;102928.25;4964463;28;97206;-84
2022/03/27 11:34:04;;;;;;;8.60;6.33;;;;;;;17.84;48.26;102930.34;4963209;28;99658;-84
2022/03/27 11:36:31;;;;;;;8.63;6.27;;;;;;;17.76;48.98;102918.06;4967948;28;102361;-84